PWSweather.com
Personal Weather Stations
Station Observations
PALMY
Palmerston NorthNZ 4410

Palmerston NorthNZ 4410

Lat: -40.349104, Lon: 175.615094

Elevation: 75.4

Station Type: WeatherDuino Pro2

http://palmyweather.co.nz

Latest ConditionsUpdated 9:00:00 AM GMT+12:12 Monday, Jan 20, 2020
Currently Today's Max Today's Min Today's Average
Temperature 71.6°F22.0°C 71.6°F22.0°C 61.0°F16.1°C 64.4°F18.0°C
Dew Point 57.9°F14.4°C 58.6°F14.8°C 56.2°F13.4°C 58.0°F14.4°C
Winds 3.6 mph SE5.8 kmh SE 4.5 mph -7.2 kmh - - 2.5 mph 4.0 kmh
Wind Gusts 11.2 mph18.0 kmh 14.8 mph23.8 kmh - -
Humidity 62% 88% 61% 80%
Pressure 30.03 in1016.9 mb 30.04 in1017.3 mb 30.00 in1015.9 mb -
Hour Temp Dew Point Humidity Winds Wind Gusts Pressure Precip Precip Rate Daily Precip Total
09:00 AM 71.6°F22.0°C 57.9°F14.4°C 62% 3.6 mph SE5.8 kmh SE 11.2 mph18.0 kmh 30.03 in1016.9 mb 0.00 in0.0 mm 0.00 in0.0 mm 0.00 in0.0 mm
08:55 AM 71.1°F21.7°C 57.9°F14.4°C 63% 4.0 mph SE6.4 kmh SE 11.2 mph18.0 kmh 30.03 in1016.9 mb 0.00 in0.0 mm 0.00 in0.0 mm 0.00 in0.0 mm
08:50 AM 71.1°F21.7°C 57.9°F14.4°C 63% 4.0 mph SE6.4 kmh SE 14.8 mph23.8 kmh 30.03 in1016.9 mb 0.00 in0.0 mm 0.00 in0.0 mm 0.00 in0.0 mm
08:45 AM 70.7°F21.5°C 57.0°F13.9°C 62% 4.5 mph ESE7.2 kmh ESE 14.8 mph23.8 kmh 30.03 in1016.9 mb 0.00 in0.0 mm 0.00 in0.0 mm 0.00 in0.0 mm
08:40 AM 70.3°F21.3°C 56.2°F13.4°C 61% 3.6 mph ESE5.8 kmh ESE 9.4 mph15.1 kmh 30.03 in1016.9 mb 0.00 in0.0 mm 0.00 in0.0 mm 0.00 in0.0 mm
08:35 AM 71.1°F21.7°C 57.0°F13.9°C 61% 3.6 mph SE5.8 kmh SE 13.4 mph21.6 kmh 30.03 in1016.9 mb 0.00 in0.0 mm 0.00 in0.0 mm 0.00 in0.0 mm
08:30 AM 70.0°F21.1°C 56.4°F13.6°C 62% 3.6 mph SE5.8 kmh SE 13.4 mph21.6 kmh 30.03 in1016.9 mb 0.00 in0.0 mm 0.00 in0.0 mm 0.00 in0.0 mm
08:25 AM 69.8°F21.0°C 56.6°F13.7°C 63% 3.6 mph SE5.8 kmh SE 10.3 mph16.6 kmh 30.03 in1016.9 mb 0.00 in0.0 mm 0.00 in0.0 mm 0.00 in0.0 mm
08:20 AM 69.4°F20.8°C 56.7°F13.7°C 64% 3.6 mph SE5.8 kmh SE 12.1 mph19.5 kmh 30.03 in1016.9 mb 0.00 in0.0 mm 0.00 in0.0 mm 0.00 in0.0 mm
08:15 AM 69.3°F20.7°C 57.0°F13.9°C 65% 3.1 mph SE5.0 kmh SE 12.1 mph19.5 kmh 30.03 in1016.9 mb 0.00 in0.0 mm 0.00 in0.0 mm 0.00 in0.0 mm
08:10 AM 68.5°F20.3°C 57.1°F13.9°C 67% 3.1 mph SE5.0 kmh SE 9.9 mph15.9 kmh 30.03 in1016.9 mb 0.00 in0.0 mm 0.00 in0.0 mm 0.00 in0.0 mm
08:05 AM 68.2°F20.1°C 56.8°F13.8°C 67% 3.1 mph SE5.0 kmh SE 8.1 mph13.0 kmh 30.04 in1017.3 mb 0.00 in0.0 mm 0.00 in0.0 mm 0.00 in0.0 mm
08:00 AM 68.2°F20.1°C 57.6°F14.2°C 69% 3.1 mph SE5.0 kmh SE 7.2 mph11.6 kmh 30.04 in1017.3 mb 0.00 in0.0 mm 0.00 in0.0 mm 0.00 in0.0 mm
07:55 AM 67.8°F19.9°C 57.7°F14.3°C 70% 3.1 mph SSE5.0 kmh SSE 9.4 mph15.1 kmh 30.03 in1016.9 mb 0.00 in0.0 mm 0.00 in0.0 mm 0.00 in0.0 mm
07:50 AM 67.3°F19.6°C 57.6°F14.2°C 71% 3.6 mph SE5.8 kmh SE 13.0 mph20.9 kmh 30.03 in1016.9 mb 0.00 in0.0 mm 0.00 in0.0 mm 0.00 in0.0 mm
07:45 AM 66.9°F19.4°C 57.6°F14.2°C 72% 3.6 mph ESE5.8 kmh ESE 13.0 mph20.9 kmh 30.03 in1016.9 mb 0.00 in0.0 mm 0.00 in0.0 mm 0.00 in0.0 mm
07:40 AM 67.1°F19.5°C 57.8°F14.3°C 72% 2.7 mph ESE4.3 kmh ESE 7.2 mph11.6 kmh 30.03 in1016.9 mb 0.00 in0.0 mm 0.00 in0.0 mm 0.00 in0.0 mm
07:35 AM 67.5°F19.7°C 58.2°F14.6°C 72% 2.7 mph SE4.3 kmh SE 6.7 mph10.8 kmh 30.03 in1016.9 mb 0.00 in0.0 mm 0.00 in0.0 mm 0.00 in0.0 mm
07:30 AM 66.7°F19.3°C 57.8°F14.3°C 73% 2.7 mph ESE4.3 kmh ESE 7.6 mph12.2 kmh 30.03 in1016.9 mb 0.00 in0.0 mm 0.00 in0.0 mm 0.00 in0.0 mm
07:25 AM 67.1°F19.5°C 58.2°F14.6°C 73% 2.7 mph ESE4.3 kmh ESE 7.6 mph12.2 kmh 30.03 in1016.9 mb 0.00 in0.0 mm 0.00 in0.0 mm 0.00 in0.0 mm
07:20 AM 66.7°F19.3°C 58.1°F14.5°C 74% 2.7 mph ESE4.3 kmh ESE 6.7 mph10.8 kmh 30.03 in1016.9 mb 0.00 in0.0 mm 0.00 in0.0 mm 0.00 in0.0 mm
07:15 AM 66.7°F19.3°C 58.1°F14.5°C 74% 3.1 mph ESE5.0 kmh ESE 5.8 mph9.3 kmh 30.03 in1016.9 mb 0.00 in0.0 mm 0.00 in0.0 mm 0.00 in0.0 mm
07:10 AM 66.2°F19.0°C 58.0°F14.4°C 75% 2.7 mph SE4.3 kmh SE 6.3 mph10.1 kmh 30.02 in1016.6 mb 0.00 in0.0 mm 0.00 in0.0 mm 0.00 in0.0 mm
07:05 AM 66.2°F19.0°C 58.0°F14.4°C 75% 2.2 mph SE3.5 kmh SE 6.3 mph10.1 kmh 30.02 in1016.6 mb 0.00 in0.0 mm 0.00 in0.0 mm 0.00 in0.0 mm
07:00 AM 66.4°F19.1°C 58.6°F14.8°C 76% 1.8 mph SE2.9 kmh SE 4.9 mph7.9 kmh 30.02 in1016.6 mb 0.00 in0.0 mm 0.00 in0.0 mm 0.00 in0.0 mm
06:55 AM 65.8°F18.8°C 58.0°F14.4°C 76% 2.2 mph SE3.5 kmh SE 4.9 mph7.9 kmh 30.02 in1016.6 mb 0.00 in0.0 mm 0.00 in0.0 mm 0.00 in0.0 mm
06:50 AM 65.7°F18.7°C 58.3°F14.6°C 77% 3.1 mph SE5.0 kmh SE 8.5 mph13.7 kmh 30.02 in1016.6 mb 0.00 in0.0 mm 0.00 in0.0 mm 0.00 in0.0 mm
06:45 AM 65.3°F18.5°C 57.9°F14.4°C 77% 3.1 mph SE5.0 kmh SE 8.5 mph13.7 kmh 30.02 in1016.6 mb 0.00 in0.0 mm 0.00 in0.0 mm 0.00 in0.0 mm
06:40 AM 65.3°F18.5°C 57.9°F14.4°C 77% 2.7 mph SE4.3 kmh SE 8.5 mph13.7 kmh 30.02 in1016.6 mb 0.00 in0.0 mm 0.00 in0.0 mm 0.00 in0.0 mm
06:35 AM 64.9°F18.3°C 57.9°F14.4°C 78% 2.7 mph SE4.3 kmh SE 9.0 mph14.5 kmh 30.02 in1016.6 mb 0.00 in0.0 mm 0.00 in0.0 mm 0.00 in0.0 mm
06:30 AM 64.9°F18.3°C 58.2°F14.6°C 79% 2.2 mph ESE3.5 kmh ESE 9.0 mph14.5 kmh 30.02 in1016.6 mb 0.00 in0.0 mm 0.00 in0.0 mm 0.00 in0.0 mm
06:25 AM 64.8°F18.2°C 58.1°F14.5°C 79% 2.2 mph SE3.5 kmh SE 11.2 mph18.0 kmh 30.02 in1016.6 mb 0.00 in0.0 mm 0.00 in0.0 mm 0.00 in0.0 mm
06:20 AM 64.6°F18.1°C 58.3°F14.6°C 80% 2.2 mph SE3.5 kmh SE 11.2 mph18.0 kmh 30.02 in1016.6 mb 0.00 in0.0 mm 0.00 in0.0 mm 0.00 in0.0 mm
06:15 AM 64.8°F18.2°C 58.5°F14.7°C 80% 1.8 mph SE2.9 kmh SE 4.5 mph7.2 kmh 30.02 in1016.6 mb 0.00 in0.0 mm 0.00 in0.0 mm 0.00 in0.0 mm
06:10 AM 64.6°F18.1°C 58.6°F14.8°C 81% 1.3 mph SE2.1 kmh SE 4.0 mph6.4 kmh 30.02 in1016.6 mb 0.00 in0.0 mm 0.00 in0.0 mm 0.00 in0.0 mm
06:05 AM 63.7°F17.6°C 58.1°F14.5°C 82% 1.3 mph SE2.1 kmh SE 3.1 mph5.0 kmh 30.02 in1016.6 mb 0.00 in0.0 mm 0.00 in0.0 mm 0.00 in0.0 mm
06:00 AM 63.7°F17.6°C 58.4°F14.7°C 83% 1.3 mph SE2.1 kmh SE 4.0 mph6.4 kmh 30.02 in1016.6 mb 0.00 in0.0 mm 0.00 in0.0 mm 0.00 in0.0 mm
05:55 AM 63.5°F17.5°C 58.2°F14.6°C 83% 1.3 mph SE2.1 kmh SE 4.0 mph6.4 kmh 30.02 in1016.6 mb 0.00 in0.0 mm 0.00 in0.0 mm 0.00 in0.0 mm
05:50 AM 63.1°F17.3°C 58.2°F14.6°C 84% 1.3 mph SE2.1 kmh SE 4.0 mph6.4 kmh 30.02 in1016.6 mb 0.00 in0.0 mm 0.00 in0.0 mm 0.00 in0.0 mm
05:45 AM 63.0°F17.2°C 58.4°F14.7°C 85% 2.2 mph SE3.5 kmh SE 6.3 mph10.1 kmh 30.02 in1016.6 mb 0.00 in0.0 mm 0.00 in0.0 mm 0.00 in0.0 mm
05:40 AM 62.8°F17.1°C 58.2°F14.6°C 85% 2.7 mph SE4.3 kmh SE 6.3 mph10.1 kmh 30.02 in1016.6 mb 0.00 in0.0 mm 0.00 in0.0 mm 0.00 in0.0 mm
05:35 AM 62.4°F16.9°C 58.2°F14.6°C 86% 2.2 mph SE3.5 kmh SE 6.3 mph10.1 kmh 30.02 in1016.6 mb 0.00 in0.0 mm 0.00 in0.0 mm 0.00 in0.0 mm
05:30 AM 62.2°F16.8°C 58.3°F14.6°C 87% 2.2 mph SE3.5 kmh SE 6.3 mph10.1 kmh 30.02 in1016.6 mb 0.00 in0.0 mm 0.00 in0.0 mm 0.00 in0.0 mm
05:25 AM 61.9°F16.6°C 58.0°F14.4°C 87% 1.8 mph SE2.9 kmh SE 5.4 mph8.7 kmh 30.02 in1016.6 mb 0.00 in0.0 mm 0.00 in0.0 mm 0.00 in0.0 mm
05:20 AM 61.5°F16.4°C 57.6°F14.2°C 87% 1.3 mph SE2.1 kmh SE 4.0 mph6.4 kmh 30.02 in1016.6 mb 0.00 in0.0 mm 0.00 in0.0 mm 0.00 in0.0 mm
05:15 AM 61.3°F16.3°C 57.7°F14.3°C 88% 1.3 mph ESE2.1 kmh ESE 3.1 mph5.0 kmh 30.02 in1016.6 mb 0.00 in0.0 mm 0.00 in0.0 mm 0.00 in0.0 mm
05:10 AM 61.2°F16.2°C 57.6°F14.2°C 88% 1.3 mph E2.1 kmh E 2.7 mph4.3 kmh 30.02 in1016.6 mb 0.00 in0.0 mm 0.00 in0.0 mm 0.00 in0.0 mm
05:05 AM 61.0°F16.1°C 57.4°F14.1°C 88% 1.3 mph E2.1 kmh E 3.6 mph5.8 kmh 30.02 in1016.6 mb 0.00 in0.0 mm 0.00 in0.0 mm 0.00 in0.0 mm
05:00 AM 61.2°F16.2°C 57.3°F14.1°C 87% 1.3 mph E2.1 kmh E 3.6 mph5.8 kmh 30.02 in1016.6 mb 0.00 in0.0 mm 0.00 in0.0 mm 0.00 in0.0 mm
04:55 AM 61.2°F16.2°C 57.3°F14.1°C 87% 1.3 mph E2.1 kmh E 2.7 mph4.3 kmh 30.02 in1016.6 mb 0.00 in0.0 mm 0.00 in0.0 mm 0.00 in0.0 mm
04:50 AM 61.3°F16.3°C 57.4°F14.1°C 87% 1.3 mph E2.1 kmh E 3.1 mph5.0 kmh 30.02 in1016.6 mb 0.00 in0.0 mm 0.00 in0.0 mm 0.00 in0.0 mm
04:45 AM 61.5°F16.4°C 57.6°F14.2°C 87% 2.2 mph E3.5 kmh E 4.9 mph7.9 kmh 30.02 in1016.6 mb 0.00 in0.0 mm 0.00 in0.0 mm 0.00 in0.0 mm
04:40 AM 61.7°F16.5°C 57.8°F14.3°C 87% 2.2 mph E3.5 kmh E 4.9 mph7.9 kmh 30.02 in1016.6 mb 0.00 in0.0 mm 0.00 in0.0 mm 0.00 in0.0 mm
04:35 AM 61.3°F16.3°C 57.4°F14.1°C 87% 1.8 mph E2.9 kmh E 4.5 mph7.2 kmh 30.02 in1016.6 mb 0.00 in0.0 mm 0.00 in0.0 mm 0.00 in0.0 mm
04:30 AM 61.3°F16.3°C 57.4°F14.1°C 87% 1.3 mph ESE2.1 kmh ESE 4.5 mph7.2 kmh 30.02 in1016.6 mb 0.00 in0.0 mm 0.00 in0.0 mm 0.00 in0.0 mm
04:25 AM 61.3°F16.3°C 57.4°F14.1°C 87% 1.3 mph ESE2.1 kmh ESE 2.7 mph4.3 kmh 30.01 in1016.3 mb 0.00 in0.0 mm 0.00 in0.0 mm 0.00 in0.0 mm
04:20 AM 61.5°F16.4°C 57.6°F14.2°C 87% 1.8 mph E2.9 kmh E 6.3 mph10.1 kmh 30.01 in1016.3 mb 0.00 in0.0 mm 0.00 in0.0 mm 0.00 in0.0 mm
04:15 AM 61.7°F16.5°C 57.5°F14.2°C 86% 2.2 mph E3.5 kmh E 6.3 mph10.1 kmh 30.01 in1016.3 mb 0.00 in0.0 mm 0.00 in0.0 mm 0.00 in0.0 mm
04:10 AM 61.9°F16.6°C 58.0°F14.4°C 87% 2.2 mph E3.5 kmh E 5.4 mph8.7 kmh 30.00 in1015.9 mb 0.00 in0.0 mm 0.00 in0.0 mm 0.00 in0.0 mm
04:05 AM 61.7°F16.5°C 57.8°F14.3°C 87% 1.8 mph E2.9 kmh E 4.9 mph7.9 kmh 30.00 in1015.9 mb 0.00 in0.0 mm 0.00 in0.0 mm 0.00 in0.0 mm
04:00 AM 61.9°F16.6°C 57.7°F14.3°C 86% 1.8 mph E2.9 kmh E 5.4 mph8.7 kmh 30.00 in1015.9 mb 0.00 in0.0 mm 0.00 in0.0 mm 0.00 in0.0 mm
03:55 AM 62.1°F16.7°C 57.9°F14.4°C 86% 1.8 mph E2.9 kmh E 5.4 mph8.7 kmh 30.00 in1015.9 mb 0.00 in0.0 mm 0.00 in0.0 mm 0.00 in0.0 mm
03:50 AM 62.2°F16.8°C 58.0°F14.4°C 86% 2.2 mph E3.5 kmh E 7.2 mph11.6 kmh 30.00 in1015.9 mb 0.00 in0.0 mm 0.00 in0.0 mm 0.00 in0.0 mm
03:45 AM 62.4°F16.9°C 58.2°F14.6°C 86% 2.2 mph SE3.5 kmh SE 7.2 mph11.6 kmh 30.00 in1015.9 mb 0.00 in0.0 mm 0.00 in0.0 mm 0.00 in0.0 mm
03:40 AM 62.4°F16.9°C 58.2°F14.6°C 86% 1.8 mph SE2.9 kmh SE 5.4 mph8.7 kmh 30.00 in1015.9 mb 0.00 in0.0 mm 0.00 in0.0 mm 0.00 in0.0 mm
03:35 AM 62.6°F17.0°C 58.0°F14.4°C 85% 1.8 mph SE2.9 kmh SE 5.4 mph8.7 kmh 30.00 in1015.9 mb 0.00 in0.0 mm 0.00 in0.0 mm 0.00 in0.0 mm
03:30 AM 62.8°F17.1°C 58.2°F14.6°C 85% 2.7 mph E4.3 kmh E 5.4 mph8.7 kmh 30.00 in1015.9 mb 0.00 in0.0 mm 0.00 in0.0 mm 0.00 in0.0 mm
03:25 AM 63.0°F17.2°C 58.4°F14.7°C 85% 2.7 mph E4.3 kmh E 6.7 mph10.8 kmh 30.00 in1015.9 mb 0.00 in0.0 mm 0.00 in0.0 mm 0.00 in0.0 mm
03:20 AM 63.0°F17.2°C 58.4°F14.7°C 85% 3.1 mph E5.0 kmh E 8.1 mph13.0 kmh 30.00 in1015.9 mb 0.00 in0.0 mm 0.00 in0.0 mm 0.00 in0.0 mm
03:15 AM 63.1°F17.3°C 58.5°F14.7°C 85% 3.1 mph ESE5.0 kmh ESE 8.1 mph13.0 kmh 30.01 in1016.3 mb 0.00 in0.0 mm 0.00 in0.0 mm 0.00 in0.0 mm
03:10 AM 63.1°F17.3°C 58.5°F14.7°C 85% 3.1 mph ESE5.0 kmh ESE 6.3 mph10.1 kmh 30.01 in1016.3 mb 0.00 in0.0 mm 0.00 in0.0 mm 0.00 in0.0 mm
03:05 AM 63.1°F17.3°C 58.5°F14.7°C 85% 3.1 mph E5.0 kmh E 7.2 mph11.6 kmh 30.02 in1016.6 mb 0.00 in0.0 mm 0.00 in0.0 mm 0.00 in0.0 mm
03:00 AM 63.1°F17.3°C 58.5°F14.7°C 85% 2.7 mph E4.3 kmh E 7.2 mph11.6 kmh 30.02 in1016.6 mb 0.00 in0.0 mm 0.00 in0.0 mm 0.00 in0.0 mm
02:55 AM 63.0°F17.2°C 58.4°F14.7°C 85% 2.2 mph E3.5 kmh E 5.8 mph9.3 kmh 30.02 in1016.6 mb 0.00 in0.0 mm 0.00 in0.0 mm 0.00 in0.0 mm
02:50 AM 63.0°F17.2°C 58.4°F14.7°C 85% 2.2 mph E3.5 kmh E 5.8 mph9.3 kmh 30.02 in1016.6 mb 0.00 in0.0 mm 0.00 in0.0 mm 0.00 in0.0 mm
02:45 AM 62.8°F17.1°C 58.2°F14.6°C 85% 2.2 mph E3.5 kmh E 5.4 mph8.7 kmh 30.02 in1016.6 mb 0.00 in0.0 mm 0.00 in0.0 mm 0.00 in0.0 mm
02:40 AM 62.8°F17.1°C 58.2°F14.6°C 85% 3.1 mph E5.0 kmh E 9.9 mph15.9 kmh 30.02 in1016.6 mb 0.00 in0.0 mm 0.00 in0.0 mm 0.00 in0.0 mm
02:35 AM 63.0°F17.2°C 58.4°F14.7°C 85% 3.1 mph E5.0 kmh E 9.9 mph15.9 kmh 30.02 in1016.6 mb 0.00 in0.0 mm 0.00 in0.0 mm 0.00 in0.0 mm
02:30 AM 63.0°F17.2°C 58.4°F14.7°C 85% 2.7 mph E4.3 kmh E 5.8 mph9.3 kmh 30.02 in1016.6 mb 0.00 in0.0 mm 0.00 in0.0 mm 0.00 in0.0 mm
02:25 AM 63.0°F17.2°C 58.4°F14.7°C 85% 2.7 mph E4.3 kmh E 7.2 mph11.6 kmh 30.02 in1016.6 mb 0.00 in0.0 mm 0.00 in0.0 mm 0.00 in0.0 mm
02:20 AM 63.0°F17.2°C 58.4°F14.7°C 85% 2.7 mph ENE4.3 kmh ENE 7.2 mph11.6 kmh 30.02 in1016.6 mb 0.00 in0.0 mm 0.00 in0.0 mm 0.00 in0.0 mm
02:15 AM 63.0°F17.2°C 58.4°F14.7°C 85% 2.2 mph ENE3.5 kmh ENE 5.4 mph8.7 kmh 30.02 in1016.6 mb 0.00 in0.0 mm 0.00 in0.0 mm 0.00 in0.0 mm
02:10 AM 63.0°F17.2°C 58.1°F14.5°C 84% 2.2 mph ENE3.5 kmh ENE 4.9 mph7.9 kmh 30.02 in1016.6 mb 0.00 in0.0 mm 0.00 in0.0 mm 0.00 in0.0 mm
02:05 AM 63.1°F17.3°C 58.2°F14.6°C 84% 2.2 mph E3.5 kmh E 6.7 mph10.8 kmh 30.02 in1016.6 mb 0.00 in0.0 mm 0.00 in0.0 mm 0.00 in0.0 mm
02:00 AM 63.3°F17.4°C 58.4°F14.7°C 84% 2.7 mph E4.3 kmh E 8.1 mph13.0 kmh 30.02 in1016.6 mb 0.00 in0.0 mm 0.00 in0.0 mm 0.00 in0.0 mm
01:55 AM 63.7°F17.6°C 58.4°F14.7°C 83% 3.1 mph E5.0 kmh E 8.1 mph13.0 kmh 30.02 in1016.6 mb 0.00 in0.0 mm 0.00 in0.0 mm 0.00 in0.0 mm
01:50 AM 63.7°F17.6°C 58.4°F14.7°C 83% 2.7 mph E4.3 kmh E 6.3 mph10.1 kmh 30.02 in1016.6 mb 0.00 in0.0 mm 0.00 in0.0 mm 0.00 in0.0 mm
01:45 AM 63.9°F17.7°C 58.3°F14.6°C 82% 2.2 mph E3.5 kmh E 6.3 mph10.1 kmh 30.02 in1016.6 mb 0.00 in0.0 mm 0.00 in0.0 mm 0.00 in0.0 mm
01:40 AM 64.0°F17.8°C 58.4°F14.7°C 82% 2.2 mph ESE3.5 kmh ESE 5.4 mph8.7 kmh 30.03 in1016.9 mb 0.00 in0.0 mm 0.00 in0.0 mm 0.00 in0.0 mm
01:35 AM 64.0°F17.8°C 58.4°F14.7°C 82% 2.7 mph E4.3 kmh E 7.2 mph11.6 kmh 30.03 in1016.9 mb 0.00 in0.0 mm 0.00 in0.0 mm 0.00 in0.0 mm
01:30 AM 64.0°F17.8°C 58.4°F14.7°C 82% 3.1 mph E5.0 kmh E 7.6 mph12.2 kmh 30.03 in1016.9 mb 0.00 in0.0 mm 0.00 in0.0 mm 0.00 in0.0 mm
01:25 AM 63.9°F17.7°C 58.6°F14.8°C 83% 3.1 mph ENE5.0 kmh ENE 7.6 mph12.2 kmh 30.03 in1016.9 mb 0.00 in0.0 mm 0.00 in0.0 mm 0.00 in0.0 mm
01:20 AM 63.9°F17.7°C 58.6°F14.8°C 83% 3.6 mph ENE5.8 kmh ENE 13.9 mph22.4 kmh 30.03 in1016.9 mb 0.00 in0.0 mm 0.00 in0.0 mm 0.00 in0.0 mm
01:15 AM 63.7°F17.6°C 58.4°F14.7°C 83% 3.1 mph ENE5.0 kmh ENE 13.9 mph22.4 kmh 30.03 in1016.9 mb 0.00 in0.0 mm 0.00 in0.0 mm 0.00 in0.0 mm
01:10 AM 63.5°F17.5°C 57.9°F14.4°C 82% 2.2 mph ENE3.5 kmh ENE 6.3 mph10.1 kmh 30.03 in1016.9 mb 0.00 in0.0 mm 0.00 in0.0 mm 0.00 in0.0 mm
01:05 AM 63.5°F17.5°C 57.9°F14.4°C 82% 2.2 mph ENE3.5 kmh ENE 7.2 mph11.6 kmh 30.03 in1016.9 mb 0.00 in0.0 mm 0.00 in0.0 mm 0.00 in0.0 mm
01:00 AM 63.5°F17.5°C 57.9°F14.4°C 82% 2.7 mph E4.3 kmh E 7.2 mph11.6 kmh 30.03 in1016.9 mb 0.00 in0.0 mm 0.00 in0.0 mm 0.00 in0.0 mm
12:55 AM 63.7°F17.6°C 57.8°F14.3°C 81% 2.7 mph E4.3 kmh E 4.9 mph7.9 kmh 30.03 in1016.9 mb 0.00 in0.0 mm 0.00 in0.0 mm 0.00 in0.0 mm
12:50 AM 63.9°F17.7°C 58.0°F14.4°C 81% 2.7 mph E4.3 kmh E 6.3 mph10.1 kmh 30.03 in1016.9 mb 0.00 in0.0 mm 0.00 in0.0 mm 0.00 in0.0 mm
12:45 AM 64.0°F17.8°C 57.7°F14.3°C 80% 2.7 mph E4.3 kmh E 6.3 mph10.1 kmh 30.03 in1016.9 mb 0.00 in0.0 mm 0.00 in0.0 mm 0.00 in0.0 mm
12:40 AM 64.2°F17.9°C 57.9°F14.4°C 80% 2.7 mph E4.3 kmh E 7.2 mph11.6 kmh 30.03 in1016.9 mb 0.00 in0.0 mm 0.00 in0.0 mm 0.00 in0.0 mm
12:35 AM 64.4°F18.0°C 58.1°F14.5°C 80% 3.6 mph ENE5.8 kmh ENE 9.9 mph15.9 kmh 30.03 in1016.9 mb 0.00 in0.0 mm 0.00 in0.0 mm 0.00 in0.0 mm
12:30 AM 64.4°F18.0°C 58.1°F14.5°C 80% 3.1 mph E5.0 kmh E 9.9 mph15.9 kmh 30.03 in1016.9 mb 0.00 in0.0 mm 0.00 in0.0 mm 0.00 in0.0 mm
12:25 AM 64.6°F18.1°C 58.3°F14.6°C 80% 2.7 mph E4.3 kmh E 9.4 mph15.1 kmh 30.03 in1016.9 mb 0.00 in0.0 mm 0.00 in0.0 mm 0.00 in0.0 mm
12:20 AM 64.4°F18.0°C 58.1°F14.5°C 80% 3.1 mph E5.0 kmh E 9.4 mph15.1 kmh 30.03 in1016.9 mb 0.00 in0.0 mm 0.00 in0.0 mm 0.00 in0.0 mm
12:15 AM 64.6°F18.1°C 58.3°F14.6°C 80% 3.1 mph E5.0 kmh E 9.4 mph15.1 kmh 30.04 in1017.3 mb 0.00 in0.0 mm 0.00 in0.0 mm 0.00 in0.0 mm
12:10 AM 64.4°F18.0°C 58.1°F14.5°C 80% 3.1 mph E5.0 kmh E 8.5 mph13.7 kmh 30.04 in1017.3 mb 0.00 in0.0 mm 0.00 in0.0 mm 0.00 in0.0 mm
12:05 AM 64.6°F18.1°C 58.3°F14.6°C 80% 2.2 mph E3.5 kmh E 6.3 mph10.1 kmh 30.04 in1017.3 mb 0.00 in0.0 mm 0.00 in0.0 mm 0.00 in0.0 mm
12:00 AM 64.6°F18.1°C 58.3°F14.6°C 80% 2.2 mph E3.5 kmh E 5.4 mph8.7 kmh 30.04 in1017.3 mb 0.00 in0.0 mm 0.00 in0.0 mm 0.00 in0.0 mm